RJSO(METAR)
03/23 14:00
METAR RJSO 230500Z 29014KT 240V340 9999 FEW030 SCT040 06/M05 Q1012
RMK 2CU030 4CU040 A2990=
戻る
トップページへ戻る
IMOC Co,.Ltd.